Time;durP1;ratioP1;P1;durP2;ratioP2;P2;SDS_P1;SDS_P2;PMS_P1;PMS_P2;Temp;Humidity;BMP_temperature;BMP_pressure;BME280_temperature;BME280_humidity;BME280_pressure;Samples;Min_cycle;Max_cycle;Signal;HPM_P1;HPM_P2
2022/01/14 00:01:41;;;;;;;18.20;11.27;;;5.70;92.50;;;;;;5109950;27;20051;-71
2022/01/14 00:04:06;;;;;;;18.88;10.80;;;5.70;92.50;;;;;;5111433;27;20150;-71
2022/01/14 00:06:32;;;;;;;21.27;12.20;;;5.70;92.40;;;;;;5128882;27;20043;-71
2022/01/14 00:09:10;;;;;;;25.23;12.45;;;5.70;92.50;;;;;;5112138;27;20050;-71
2022/01/14 00:11:50;;;;;;;29.33;12.82;;;5.70;92.40;;;;;;5129850;27;20051;-71
2022/01/14 00:16:44;;;;;;;23.33;12.13;;;5.70;92.50;;;;;;5129792;27;20051;-71
2022/01/14 00:19:10;;;;;;;19.67;12.60;;;5.70;92.40;;;;;;5130982;27;20067;-71
2022/01/14 00:21:38;;;;;;;19.08;10.73;;;5.70;92.30;;;;;;5130182;27;20039;-71
2022/01/14 00:24:11;;;;;;;23.63;12.35;;;5.70;92.40;;;;;;5129530;27;20035;-73
2022/01/14 00:32:11;;;;;;;21.25;11.63;;;5.70;92.30;;;;;;5110710;27;20050;-71
2022/01/14 00:34:37;;;;;;;25.40;13.18;;;5.70;92.40;;;;;;5129936;27;20761;-70
2022/01/14 00:37:03;;;;;;;26.83;12.25;;;5.70;92.40;;;;;;5129421;27;20051;-71
2022/01/14 00:39:29;;;;;;;22.73;11.30;;;5.70;92.40;;;;;;5130161;27;20031;-71
2022/01/14 00:41:55;;;;;;;22.83;10.90;;;5.70;92.50;;;;;;5111272;27;20043;-73
2022/01/14 00:44:21;;;;;;;20.08;11.23;;;5.80;92.50;;;;;;5130428;27;20032;-71
2022/01/14 00:46:50;;;;;;;24.45;10.10;;;5.80;92.50;;;;;;5111348;27;20133;-71
2022/01/14 00:49:18;;;;;;;25.05;11.45;;;5.80;92.50;;;;;;5110172;27;20047;-70
2022/01/14 00:51:44;;;;;;;33.50;12.63;;;5.80;92.50;;;;;;5111510;27;20152;-72
2022/01/14 00:54:11;;;;;;;20.45;10.90;;;5.80;92.50;;;;;;5128436;27;20035;-73
2022/01/14 00:59:16;;;;;;;26.80;11.80;;;5.90;92.60;;;;;;5110065;27;20099;-73
2022/01/14 01:01:48;;;;;;;30.13;12.93;;;5.90;92.60;;;;;;5111348;27;20070;-73
2022/01/14 01:04:21;;;;;;;24.27;11.87;;;6.00;92.60;;;;;;5111779;27;20087;-73
2022/01/14 01:06:50;;;;;;;23.52;11.77;;;6.00;92.60;;;;;;5110027;27;20046;-73
2022/01/14 01:09:16;;;;;;;25.95;11.57;;;6.00;92.60;;;;;;5110529;27;20051;-73
2022/01/14 01:12:10;;;;;;;27.15;11.40;;;6.10;92.60;;;;;;5110372;27;20047;-73
2022/01/14 01:17:25;;;;;;;25.45;12.13;;;6.10;92.50;;;;;;5127208;27;20510;-73
2022/01/14 01:19:51;;;;;;;24.83;10.95;;;6.10;92.50;;;;;;5110248;27;20043;-73
2022/01/14 01:22:17;;;;;;;34.78;10.73;;;6.20;92.50;;;;;;5108417;27;20039;-71
2022/01/14 01:24:42;;;;;;;25.63;12.23;;;6.20;92.50;;;;;;5110634;27;20097;-71
2022/01/14 01:27:09;;;;;;;23.65;12.30;;;6.20;92.50;;;;;;5110559;27;20031;-71
2022/01/14 01:32:03;;;;;;;35.38;12.57;;;6.20;92.70;;;;;;5110918;27;20051;-71
2022/01/14 01:34:29;;;;;;;34.25;13.90;;;6.30;92.70;;;;;;5128448;27;20043;-71
2022/01/14 01:36:57;;;;;;;27.52;13.55;;;6.40;92.70;;;;;;5109406;27;20047;-71
2022/01/14 01:39:29;;;;;;;34.63;12.23;;;6.40;92.70;;;;;;5109533;27;20035;-71
2022/01/14 01:42:09;;;;;;;30.08;12.73;;;6.40;92.90;;;;;;5110296;27;20043;-71
2022/01/14 01:44:38;;;;;;;43.30;13.50;;;6.50;92.70;;;;;;5092727;27;20103;-71
2022/01/14 01:47:05;;;;;;;27.70;13.48;;;6.40;92.80;;;;;;5127758;27;20046;-71
2022/01/14 01:49:33;;;;;;;32.58;13.52;;;6.40;92.70;;;;;;5128544;27;20035;-72
2022/01/14 01:52:00;;;;;;;29.35;13.40;;;6.50;92.70;;;;;;5128111;27;20487;-73
2022/01/14 01:54:28;;;;;;;26.23;13.50;;;6.50;92.80;;;;;;5110250;27;20353;-72
2022/01/14 01:56:55;;;;;;;32.38;13.43;;;6.60;92.70;;;;;;5127793;27;20476;-73
2022/01/14 01:59:22;;;;;;;25.23;13.95;;;6.50;92.60;;;;;;5127905;27;20039;-73
2022/01/14 02:01:48;;;;;;;37.28;12.13;;;6.50;92.70;;;;;;5092459;27;20067;-73
2022/01/14 02:04:14;;;;;;;29.90;12.32;;;6.60;92.70;;;;;;5128228;27;20031;-73
2022/01/14 02:06:40;;;;;;;25.27;12.68;;;6.60;92.60;;;;;;5128408;27;20042;-73
2022/01/14 02:09:07;;;;;;;33.55;13.18;;;6.60;92.60;;;;;;5109300;27;20074;-73
2022/01/14 02:11:33;;;;;;;43.17;14.30;;;6.60;92.60;;;;;;5109435;27;20051;-73
2022/01/14 02:14:04;;;;;;;36.28;12.88;;;6.60;92.50;;;;;;5128058;27;20057;-73
2022/01/14 02:16:34;;;;;;;31.17;14.40;;;6.60;92.50;;;;;;5127740;27;20078;-71
2022/01/14 02:24:43;;;;;;;32.53;13.55;;;6.60;92.60;;;;;;5127609;27;20039;-73
2022/01/14 02:27:13;;;;;;;29.88;13.85;;;6.60;92.60;;;;;;5127727;27;20039;-73
2022/01/14 02:29:40;;;;;;;35.00;14.55;;;6.60;92.50;;;;;;5126362;27;20035;-73
2022/01/14 02:32:06;;;;;;;27.98;12.65;;;6.60;92.40;;;;;;5128118;27;20037;-73
2022/01/14 02:34:32;;;;;;;29.58;13.38;;;6.60;92.60;;;;;;5127038;27;20394;-73
2022/01/14 02:36:58;;;;;;;27.77;13.00;;;6.60;92.50;;;;;;5108854;27;20511;-72
2022/01/14 02:39:24;;;;;;;30.25;12.93;;;6.60;92.40;;;;;;5108800;27;20031;-72
2022/01/14 02:41:51;;;;;;;23.70;12.50;;;6.60;92.30;;;;;;5108786;27;20108;-71
2022/01/14 02:44:26;;;;;;;31.58;13.68;;;6.60;92.30;;;;;;5108871;27;20051;-71
2022/01/14 02:46:56;;;;;;;32.42;13.93;;;6.60;92.30;;;;;;5108752;27;20130;-71
2022/01/14 02:49:30;;;;;;;32.45;13.40;;;6.60;92.30;;;;;;5127362;27;20039;-71
2022/01/14 02:51:57;;;;;;;32.63;13.75;;;6.60;92.30;;;;;;5109349;27;20043;-71
2022/01/14 02:54:41;;;;;;;30.17;13.20;;;6.60;92.40;;;;;;5126496;27;20114;-71
2022/01/14 02:57:13;;;;;;;27.95;13.15;;;6.60;92.40;;;;;;5126501;27;20087;-71
2022/01/14 02:59:39;;;;;;;;;;;6.60;92.30;;;;;;5109247;27;20047;-72
2022/01/14 03:02:08;;;;;;;31.10;13.55;;;6.60;92.30;;;;;;5126582;27;19923;-71
2022/01/14 03:04:39;;;;;;;29.73;13.02;;;6.60;92.40;;;;;;5126372;27;20066;-71
2022/01/14 03:07:09;;;;;;;31.92;14.50;;;6.60;92.20;;;;;;5123568;27;20046;-71
2022/01/14 03:09:37;;;;;;;30.92;12.88;;;6.60;92.30;;;;;;5126723;27;20051;-71
2022/01/14 03:12:03;;;;;;;31.63;13.88;;;6.60;92.20;;;;;;5108499;27;20032;-71
2022/01/14 03:14:28;;;;;;;30.35;13.07;;;6.70;92.20;;;;;;5108741;27;20750;-72
2022/01/14 03:16:58;;;;;;;34.97;13.65;;;6.60;92.10;;;;;;5127215;27;20121;-72
2022/01/14 03:19:25;;;;;;;33.97;13.35;;;6.60;92.20;;;;;;5127767;27;20117;-72
2022/01/14 03:22:08;;;;;;;34.33;14.40;;;6.60;92.10;;;;;;5126178;27;20050;-71
2022/01/14 03:27:04;;;;;;;28.42;13.07;;;6.70;91.90;;;;;;5125959;27;20039;-71
2022/01/14 03:29:29;;;;;;;26.00;13.02;;;6.60;91.70;;;;;;5108890;28;20661;-71
2022/01/14 03:31:55;;;;;;;22.80;12.45;;;6.60;91.70;;;;;;5108491;27;20070;-71
2022/01/14 03:34:21;;;;;;;29.33;12.18;;;6.60;91.80;;;;;;5108950;28;20050;-72
2022/01/14 03:36:46;;;;;;;35.20;13.75;;;6.60;91.70;;;;;;5107618;28;20039;-72
2022/01/14 03:39:12;;;;;;;34.88;14.07;;;6.60;91.70;;;;;;5106793;28;20039;-72
2022/01/14 03:41:38;;;;;;;25.58;13.20;;;6.60;91.70;;;;;;5108190;28;20058;-71
2022/01/14 03:44:04;;;;;;;34.90;14.15;;;6.60;91.60;;;;;;5108760;28;20682;-71
2022/01/14 03:46:30;;;;;;;32.42;13.88;;;6.60;91.70;;;;;;5108023;28;20042;-72
2022/01/14 03:48:56;;;;;;;27.10;14.43;;;6.60;91.70;;;;;;5108793;28;20818;-72
2022/01/14 03:51:27;;;;;;;32.90;13.18;;;6.60;91.70;;;;;;5126286;28;20055;-72
2022/01/14 03:53:53;;;;;;;31.25;13.30;;;6.60;91.70;;;;;;5108666;28;20484;-72
2022/01/14 03:56:18;;;;;;;25.48;14.02;;;6.60;91.70;;;;;;5109955;28;20046;-72
2022/01/14 03:58:44;;;;;;;24.58;12.05;;;6.60;91.80;;;;;;5091974;28;20047;-72
2022/01/14 04:01:12;;;;;;;30.60;14.48;;;6.60;91.70;;;;;;5109673;28;20119;-72
2022/01/14 04:03:38;;;;;;;33.75;13.82;;;6.60;91.50;;;;;;5111109;28;20046;-72
2022/01/14 04:06:05;;;;;;;20.15;12.30;;;6.60;91.60;;;;;;5088897;28;20040;-72
2022/01/14 04:08:31;;;;;;;40.15;13.90;;;6.60;91.60;;;;;;5123073;27;20416;-71
2022/01/14 04:10:58;;;;;;;33.60;14.20;;;6.60;91.50;;;;;;5107866;28;20265;-74
2022/01/14 04:13:37;;;;;;;38.97;13.93;;;6.60;91.50;;;;;;5108639;28;20051;-71
2022/01/14 04:16:04;;;;;;;32.10;12.95;;;6.60;91.40;;;;;;5107811;28;20495;-72
2022/01/14 04:18:29;;;;;;;25.35;12.98;;;6.60;91.30;;;;;;5125356;28;20039;-72
2022/01/14 04:20:55;;;;;;;29.52;12.48;;;6.60;91.30;;;;;;5108141;28;20046;-72
2022/01/14 04:23:22;;;;;;;30.90;13.20;;;6.60;91.10;;;;;;5108183;28;20190;-71
2022/01/14 04:25:53;;;;;;;31.42;12.93;;;6.60;91.00;;;;;;5109216;28;20403;-71
2022/01/14 04:28:20;;;;;;;37.00;13.10;;;6.60;90.90;;;;;;5107772;28;20074;-71
2022/01/14 04:30:47;;;;;;;30.30;12.27;;;6.60;90.90;;;;;;5108040;28;20099;-72
2022/01/14 04:33:13;;;;;;;30.17;13.95;;;6.60;90.80;;;;;;5108751;28;20169;-72
2022/01/14 04:35:38;;;;;;;26.48;13.05;;;6.60;90.90;;;;;;5123836;28;20167;-71
2022/01/14 04:38:04;;;;;;;33.35;12.02;;;6.60;90.80;;;;;;5090437;28;20035;-72
2022/01/14 04:40:31;;;;;;;28.27;12.75;;;6.60;90.80;;;;;;5104521;28;20049;-72
2022/01/14 04:42:58;;;;;;;27.60;12.15;;;6.60;90.80;;;;;;5129431;27;20038;-72
2022/01/14 04:48:05;;;;;;;28.65;11.60;;;6.60;90.30;;;;;;5127389;27;20100;-72
2022/01/14 04:50:31;;;;;;;28.58;12.60;;;6.60;90.10;;;;;;5110308;27;20475;-71
2022/01/14 04:52:57;;;;;;;27.00;12.02;;;6.60;90.20;;;;;;5129979;27;20047;-72
2022/01/14 04:55:26;;;;;;;29.73;12.10;;;6.60;90.30;;;;;;5109928;27;20402;-71
2022/01/14 04:57:54;;;;;;;26.30;12.90;;;6.60;90.20;;;;;;5111232;27;20110;-70
2022/01/14 05:00:23;;;;;;;28.92;12.30;;;6.60;90.20;;;;;;5111078;27;20047;-71
2022/01/14 05:02:51;;;;;;;31.90;13.18;;;6.60;90.40;;;;;;5111284;27;20431;-71
2022/01/14 05:05:19;;;;;;;28.88;11.68;;;6.60;90.40;;;;;;5113067;27;20055;-71
2022/01/14 05:07:46;;;;;;;27.50;11.70;;;6.60;90.40;;;;;;5094251;27;20043;-71
2022/01/14 05:10:22;;;;;;;30.85;12.32;;;6.60;90.50;;;;;;5093885;27;20086;-71
2022/01/14 05:12:48;;;;;;;30.02;13.27;;;6.60;90.50;;;;;;5128995;27;20050;-71
2022/01/14 05:15:15;;;;;;;23.58;12.05;;;6.50;90.30;;;;;;5128245;27;20039;-72
2022/01/14 05:17:41;;;;;;;24.85;11.88;;;6.60;90.60;;;;;;5110742;27;20043;-71
2022/01/14 05:20:08;;;;;;;37.72;14.98;;;6.60;90.40;;;;;;5113595;27;20042;-72
2022/01/14 05:22:33;;;;;;;32.10;12.65;;;6.60;90.60;;;;;;5132264;27;20499;-72
2022/01/14 05:24:59;;;;;;;23.48;12.10;;;6.50;90.60;;;;;;5114078;27;20046;-71
2022/01/14 05:27:24;;;;;;;27.73;13.75;;;6.60;90.50;;;;;;5114200;27;20154;-72
2022/01/14 05:29:50;;;;;;;28.33;12.18;;;6.60;90.50;;;;;;5112748;27;20054;-72
2022/01/14 05:32:16;;;;;;;27.02;12.05;;;6.60;90.60;;;;;;5113558;27;20039;-71
2022/01/14 05:34:43;;;;;;;25.05;11.82;;;6.60;90.50;;;;;;5113115;27;20553;-71
2022/01/14 05:37:10;;;;;;;27.02;11.65;;;6.60;90.50;;;;;;5108805;27;20046;-72
2022/01/14 05:39:36;;;;;;;25.75;13.07;;;6.60;90.40;;;;;;5110685;27;20491;-71
2022/01/14 05:42:03;;;;;;;29.85;12.98;;;6.50;90.40;;;;;;5113108;27;20050;-70
2022/01/14 05:44:30;;;;;;;30.35;12.73;;;6.50;90.40;;;;;;5111475;27;20039;-71
2022/01/14 05:46:57;;;;;;;23.55;11.98;;;6.50;90.50;;;;;;5131473;27;20043;-71
2022/01/14 05:49:23;;;;;;;27.73;12.88;;;6.40;90.60;;;;;;5113296;27;20074;-71
2022/01/14 05:51:50;;;;;;;27.50;12.85;;;6.50;90.50;;;;;;5112625;27;20574;-72
2022/01/14 05:54:16;;;;;;;32.85;15.18;;;6.40;90.60;;;;;;5094424;27;20043;-71
2022/01/14 05:56:42;;;;;;;23.70;11.48;;;6.40;90.70;;;;;;5126606;27;20647;-71
2022/01/14 05:59:08;;;;;;;27.73;12.38;;;6.40;90.70;;;;;;5112627;27;20058;-71
2022/01/14 06:01:34;;;;;;;25.55;12.73;;;6.40;90.70;;;;;;5130811;27;20057;-71
2022/01/14 06:04:01;;;;;;;29.63;13.15;;;6.40;90.80;;;;;;5096366;27;20534;-71
2022/01/14 06:06:27;;;;;;;23.10;12.27;;;6.40;90.70;;;;;;5112041;27;20395;-71
2022/01/14 06:08:53;;;;;;;29.13;13.02;;;6.40;90.80;;;;;;5111701;27;20127;-71
2022/01/14 06:11:19;;;;;;;30.58;14.60;;;6.40;90.70;;;;;;5102588;27;20459;-70
2022/01/14 06:13:46;;;;;;;26.23;11.48;;;6.40;90.80;;;;;;5106567;27;20460;-70
2022/01/14 06:16:11;;;;;;;36.97;13.77;;;6.40;90.70;;;;;;5131126;27;20047;-70
2022/01/14 06:18:37;;;;;;;28.80;11.65;;;6.50;90.80;;;;;;5111980;27;20410;-70
2022/01/14 06:21:04;;;;;;;22.20;12.60;;;6.40;90.80;;;;;;5112431;27;20047;-70
2022/01/14 06:23:30;;;;;;;22.02;11.13;;;6.40;90.80;;;;;;5108747;27;20253;-71
2022/01/14 06:25:56;;;;;;;29.23;13.85;;;6.50;90.80;;;;;;5117237;27;20054;-71
2022/01/14 06:28:21;;;;;;;26.40;12.23;;;6.40;90.70;;;;;;5112293;27;20035;-71
2022/01/14 06:30:47;;;;;;;31.60;12.15;;;6.40;90.70;;;;;;5130524;27;20115;-70
2022/01/14 06:33:13;;;;;;;24.48;11.20;;;6.40;90.70;;;;;;5092487;27;20037;-70
2022/01/14 06:35:39;;;;;;;24.95;12.23;;;6.50;90.80;;;;;;5104073;27;20035;-67
2022/01/14 06:38:04;;;;;;;26.10;11.82;;;6.40;90.80;;;;;;5121195;27;20039;-68
2022/01/14 06:40:31;;;;;;;23.67;11.45;;;6.50;91.10;;;;;;5130774;27;20039;-68
2022/01/14 06:42:58;;;;;;;30.02;11.82;;;6.60;91.00;;;;;;5125355;27;20069;-68
2022/01/14 06:45:23;;;;;;;25.73;10.63;;;6.60;90.80;;;;;;5111819;27;20050;-68
2022/01/14 06:47:50;;;;;;;31.33;12.02;;;6.60;90.70;;;;;;5129610;27;20039;-68
2022/01/14 06:50:17;;;;;;;30.85;10.65;;;6.70;90.50;;;;;;5124000;27;20032;-68
2022/01/14 06:52:42;;;;;;;27.48;10.13;;;6.70;90.30;;;;;;5109174;27;20047;-68
2022/01/14 06:55:09;;;;;;;29.67;10.35;;;6.70;90.30;;;;;;5116729;27;20047;-69
2022/01/14 06:57:35;;;;;;;28.80;12.68;;;6.70;90.30;;;;;;5119777;27;20112;-69
2022/01/14 07:00:07;;;;;;;26.33;10.07;;;6.70;90.20;;;;;;5129466;27;20122;-69
2022/01/14 07:02:33;;;;;;;19.45;9.32;;;6.60;90.20;;;;;;5103925;27;20762;-70
2022/01/14 07:04:58;;;;;;;19.08;8.82;;;6.60;90.30;;;;;;5128113;27;20039;-69
2022/01/14 07:07:24;;;;;;;27.77;8.45;;;6.60;90.30;;;;;;5128826;27;20046;-70
2022/01/14 07:09:56;;;;;;;24.75;7.88;;;6.60;90.50;;;;;;5117137;27;20237;-70
2022/01/14 07:12:26;;;;;;;29.10;8.05;;;6.60;90.60;;;;;;5129080;27;20143;-71
2022/01/14 07:14:53;;;;;;;21.08;7.28;;;6.60;90.60;;;;;;5128339;27;20051;-70
2022/01/14 07:17:19;;;;;;;20.75;7.47;;;6.60;90.60;;;;;;5095147;28;20058;-71
2022/01/14 07:19:46;;;;;;;24.08;8.18;;;6.60;90.50;;;;;;5113991;27;20812;-69
2022/01/14 07:22:12;;;;;;;23.38;7.78;;;6.60;90.60;;;;;;5126093;27;20039;-70
2022/01/14 07:24:38;;;;;;;21.75;7.57;;;6.60;90.70;;;;;;5111721;27;20118;-70
2022/01/14 07:27:04;;;;;;;17.73;7.35;;;6.60;90.60;;;;;;5114501;27;20160;-70
2022/01/14 07:29:29;;;;;;;29.70;6.85;;;6.70;90.50;;;;;;5109758;28;20179;-70
2022/01/14 07:31:55;;;;;;;20.65;7.05;;;6.70;90.50;;;;;;5123683;27;20032;-70
2022/01/14 07:34:21;;;;;;;26.50;8.38;;;6.70;90.50;;;;;;5113848;27;20039;-69
2022/01/14 07:36:46;;;;;;;24.10;7.72;;;6.70;90.50;;;;;;5125307;27;20051;-70
2022/01/14 07:39:12;;;;;;;26.45;9.65;;;6.70;90.50;;;;;;5106275;28;20039;-69
2022/01/14 07:41:37;;;;;;;24.15;7.63;;;6.80;90.60;;;;;;5125935;28;20043;-70
2022/01/14 07:44:04;;;;;;;27.60;6.75;;;6.90;90.40;;;;;;5111083;28;20039;-70
2022/01/14 07:46:30;;;;;;;25.80;10.38;;;6.90;90.20;;;;;;5126693;28;20070;-70
2022/01/14 07:48:55;;;;;;;21.48;7.18;;;6.80;90.20;;;;;;5119147;28;20563;-70
2022/01/14 07:51:21;;;;;;;23.50;7.95;;;6.80;90.20;;;;;;5120543;28;20027;-70
2022/01/14 07:53:46;;;;;;;26.48;7.47;;;6.80;90.20;;;;;;5129736;28;20035;-70
2022/01/14 07:56:13;;;;;;;26.00;8.00;;;6.80;90.20;;;;;;5127245;28;20692;-69
2022/01/14 07:58:40;;;;;;;22.40;8.25;;;6.70;90.40;;;;;;5111416;28;20043;-70
2022/01/14 08:01:06;;;;;;;17.45;7.63;;;6.70;90.40;;;;;;5124822;28;20046;-69
2022/01/14 08:03:32;;;;;;;19.88;7.75;;;6.70;90.40;;;;;;5117901;28;20035;-71
2022/01/14 08:05:58;;;;;;;17.77;6.30;;;6.70;90.60;;;;;;5089199;28;20066;-69
2022/01/14 08:08:24;;;;;;;23.50;7.32;;;6.80;90.50;;;;;;5124607;28;20513;-69
2022/01/14 08:10:50;;;;;;;20.95;6.10;;;6.70;90.50;;;;;;5111048;28;20434;-69
2022/01/14 08:13:16;;;;;;;22.75;6.25;;;6.70;90.60;;;;;;5103689;28;20130;-69
2022/01/14 08:15:41;;;;;;;14.82;7.00;;;6.70;90.60;;;;;;5129789;27;20044;-70
2022/01/14 08:18:09;;;;;;;18.23;6.28;;;6.70;90.50;;;;;;5126865;27;20134;-70
2022/01/14 08:20:34;;;;;;;17.17;5.63;;;6.70;90.60;;;;;;5124978;27;20130;-70
2022/01/14 08:23:00;;;;;;;17.00;6.88;;;6.80;90.60;;;;;;5133569;27;20138;-69
2022/01/14 08:25:27;;;;;;;22.38;8.30;;;6.80;90.60;;;;;;5132972;27;20071;-68
2022/01/14 08:27:53;;;;;;;14.93;6.25;;;6.70;90.70;;;;;;5114759;27;20043;-69
2022/01/14 08:30:18;;;;;;;17.52;6.22;;;6.80;90.60;;;;;;5099908;27;20058;-69
2022/01/14 08:32:44;;;;;;;20.10;6.28;;;6.80;90.60;;;;;;5132058;27;20042;-69
2022/01/14 08:35:10;;;;;;;14.60;5.57;;;6.80;90.60;;;;;;5132627;27;20039;-68
2022/01/14 08:37:38;;;;;;;21.63;6.50;;;6.80;90.60;;;;;;5132981;27;20043;-69
2022/01/14 08:40:06;;;;;;;16.58;5.25;;;6.80;90.60;;;;;;5133211;27;20506;-69
2022/01/14 08:42:32;;;;;;;19.67;5.47;;;6.90;90.60;;;;;;5127216;27;20131;-69
2022/01/14 08:44:58;;;;;;;19.15;5.40;;;6.80;90.50;;;;;;5114095;27;20118;-68
2022/01/14 08:47:23;;;;;;;19.02;4.78;;;6.80;90.50;;;;;;5132235;27;20082;-69
2022/01/14 08:49:49;;;;;;;19.70;7.15;;;6.80;90.50;;;;;;5114599;27;20035;-69
2022/01/14 08:52:15;;;;;;;14.77;4.28;;;6.80;90.70;;;;;;5114031;27;20050;-70
2022/01/14 08:54:41;;;;;;;26.52;8.35;;;6.90;90.60;;;;;;5132664;27;20116;-69
2022/01/14 08:57:07;;;;;;;15.57;5.07;;;6.80;90.60;;;;;;5132225;27;20031;-70
2022/01/14 08:59:33;;;;;;;15.40;4.72;;;6.90;90.60;;;;;;5096817;27;20043;-70
2022/01/14 09:02:00;;;;;;;15.57;4.78;;;6.90;90.50;;;;;;5113917;27;20047;-69
2022/01/14 09:04:25;;;;;;;13.98;4.20;;;7.00;90.40;;;;;;5132764;27;20087;-70
2022/01/14 09:06:51;;;;;;;12.68;4.32;;;7.00;90.60;;;;;;5131319;27;20051;-67
2022/01/14 09:09:17;;;;;;;12.32;3.90;;;7.00;90.40;;;;;;5114126;27;20499;-70
2022/01/14 09:11:42;;;;;;;17.17;4.30;;;7.00;90.40;;;;;;5113848;27;20046;-70
2022/01/14 09:14:08;;;;;;;13.45;3.83;;;7.10;90.30;;;;;;5132546;27;20046;-69
2022/01/14 09:16:34;;;;;;;20.90;3.85;;;7.10;90.30;;;;;;5132983;27;20458;-69
2022/01/14 09:19:00;;;;;;;12.30;4.00;;;7.20;90.20;;;;;;5128975;27;20039;-70
2022/01/14 09:21:26;;;;;;;12.35;3.85;;;7.20;90.10;;;;;;5087747;27;20128;-69
2022/01/14 09:23:56;;;;;;;16.85;4.10;;;7.20;90.20;;;;;;5119714;27;20449;-70
2022/01/14 09:26:22;;;;;;;14.15;3.72;;;7.20;90.00;;;;;;5119432;27;20125;-70
2022/01/14 09:28:49;;;;;;;8.07;3.90;;;7.20;90.00;;;;;;5112486;27;20134;-70
2022/01/14 09:31:16;;;;;;;18.50;3.50;;;7.20;89.90;;;;;;5102569;27;20118;-69
2022/01/14 09:33:42;;;;;;;20.33;7.28;;;7.20;89.90;;;;;;5120016;27;20043;-70
2022/01/14 09:36:07;;;;;;;23.08;4.18;;;7.20;90.10;;;;;;5120622;27;20547;-70
2022/01/14 09:38:33;;;;;;;9.60;3.40;;;7.30;90.10;;;;;;5111635;28;20060;-70
2022/01/14 09:40:59;;;;;;;7.70;3.00;;;7.30;90.10;;;;;;5111428;28;20036;-70
2022/01/14 09:43:25;;;;;;;11.85;3.25;;;7.30;90.10;;;;;;5131766;27;20605;-70
2022/01/14 09:45:54;;;;;;;13.85;3.10;;;7.40;90.10;;;;;;5131552;27;20103;-70
2022/01/14 09:48:21;;;;;;;17.95;3.80;;;7.40;90.10;;;;;;5103895;27;20049;-70
2022/01/14 09:50:47;;;;;;;15.07;4.78;;;7.40;90.00;;;;;;5119721;27;20047;-70
2022/01/14 09:53:16;;;;;;;9.75;3.45;;;7.40;89.70;;;;;;5113792;27;20039;-70
2022/01/14 09:55:43;;;;;;;15.77;3.47;;;7.40;89.70;;;;;;5126462;27;20061;-69
2022/01/14 09:58:09;;;;;;;19.48;4.10;;;7.40;89.70;;;;;;5132099;27;20043;-70
2022/01/14 10:00:36;;;;;;;16.83;4.25;;;7.40;89.70;;;;;;5131750;27;20059;-70
2022/01/14 10:03:21;;;;;;;16.52;4.82;;;7.40;89.80;;;;;;5131895;27;20064;-70
2022/01/14 10:05:51;;;;;;;17.17;3.80;;;7.50;89.70;;;;;;5113211;27;20139;-70
2022/01/14 10:08:24;;;;;;;14.40;4.50;;;7.40;89.60;;;;;;5131978;27;20559;-70
2022/01/14 10:10:57;;;;;;;11.95;3.35;;;7.50;89.80;;;;;;5113242;27;20051;-70
2022/01/14 10:13:34;;;;;;;13.32;3.45;;;7.60;89.50;;;;;;5113803;27;20051;-70
2022/01/14 10:16:06;;;;;;;20.70;4.13;;;7.50;89.60;;;;;;5125596;27;20047;-70
2022/01/14 10:18:33;;;;;;;13.68;3.33;;;7.60;89.10;;;;;;5131602;27;20039;-70
2022/01/14 10:21:08;;;;;;;13.00;3.33;;;7.50;89.30;;;;;;5121825;27;20060;-70
2022/01/14 10:23:51;;;;;;;17.85;3.83;;;7.60;89.50;;;;;;5076513;27;20075;-70
2022/01/14 10:26:17;;;;;;;12.52;3.45;;;7.70;89.70;;;;;;5128571;27;20043;-70
2022/01/14 10:28:45;;;;;;;19.00;3.88;;;7.60;89.00;;;;;;5119981;27;20092;-71
2022/01/14 10:31:12;;;;;;;28.17;5.40;;;7.60;88.60;;;;;;5101954;27;20049;-71
2022/01/14 10:33:37;;;;;;;11.23;4.05;;;7.60;89.10;;;;;;5100480;27;20040;-70
2022/01/14 10:36:04;;;;;;;14.30;3.40;;;7.60;88.90;;;;;;5103532;27;20705;-70
2022/01/14 10:38:46;;;;;;;16.92;3.50;;;7.60;89.20;;;;;;5123594;27;20038;-70
2022/01/14 10:41:11;;;;;;;19.85;4.45;;;7.60;89.10;;;;;;5117622;27;20487;-69
2022/01/14 10:43:38;;;;;;;20.42;5.57;;;7.60;89.00;;;;;;5127849;27;20046;-69
2022/01/14 10:46:09;;;;;;;16.23;3.45;;;7.60;88.90;;;;;;5109503;28;20051;-69
2022/01/14 10:48:37;;;;;;;13.65;4.00;;;7.60;89.20;;;;;;5110019;28;20297;-70
2022/01/14 10:51:04;;;;;;;28.25;4.15;;;7.50;89.30;;;;;;5124613;27;20039;-69
2022/01/14 10:53:39;;;;;;;14.55;3.90;;;7.50;89.40;;;;;;5130755;27;20039;-70
2022/01/14 10:56:09;;;;;;;17.70;4.35;;;7.50;89.50;;;;;;5092236;28;20390;-70
2022/01/14 10:58:41;;;;;;;16.45;3.60;;;7.50;89.60;;;;;;5116584;27;20043;-70
2022/01/14 11:01:14;;;;;;;15.10;3.72;;;7.40;89.20;;;;;;5112203;27;20046;-69
2022/01/14 11:04:06;;;;;;;7.78;3.08;;;7.50;89.50;;;;;;5130705;27;20600;-70
2022/01/14 11:06:33;;;;;;;10.57;3.58;;;7.60;89.20;;;;;;5110350;27;20496;-70
2022/01/14 11:09:13;;;;;;;14.05;3.53;;;7.50;89.40;;;;;;5130157;27;20066;-70
2022/01/14 11:11:41;;;;;;;17.02;5.10;;;7.40;89.50;;;;;;5128079;27;20063;-70
2022/01/14 11:14:08;;;;;;;11.45;3.25;;;7.50;89.50;;;;;;5109793;28;20047;-70
2022/01/14 11:16:34;;;;;;;18.23;5.85;;;7.50;89.70;;;;;;5121040;27;20050;-70
2022/01/14 11:19:02;;;;;;;22.45;5.07;;;7.50;89.70;;;;;;5112080;27;20051;-70
2022/01/14 11:24:14;;;;;;;18.15;3.83;;;7.50;90.00;;;;;;5124785;27;20279;-70
2022/01/14 11:26:40;;;;;;;18.27;4.07;;;7.50;90.00;;;;;;5109875;28;20043;-70
2022/01/14 11:29:15;;;;;;;15.80;4.05;;;7.60;89.90;;;;;;5124855;27;20499;-70
2022/01/14 11:31:42;;;;;;;18.23;4.95;;;7.60;89.90;;;;;;5111682;27;20081;-70
2022/01/14 11:34:32;;;;;;;22.45;4.35;;;7.60;89.80;;;;;;5111912;28;20050;-70
2022/01/14 11:37:00;;;;;;;14.60;4.55;;;7.60;89.80;;;;;;5129314;27;20123;-70
2022/01/14 11:39:31;;;;;;;15.05;3.95;;;7.50;90.00;;;;;;5130134;28;20039;-70
2022/01/14 11:42:00;;;;;;;14.63;3.60;;;7.60;89.90;;;;;;5130097;27;20376;-69
2022/01/14 11:44:41;;;;;;;23.13;4.32;;;7.50;89.80;;;;;;5129253;28;20047;-72
2022/01/14 11:47:08;;;;;;;15.95;4.10;;;7.80;90.40;;;;;;5128951;27;20507;-70
2022/01/14 11:49:38;;;;;;;14.65;3.42;;;8.10;90.30;;;;;;5111809;28;20078;-71
2022/01/14 11:52:08;;;;;;;18.65;3.97;;;8.10;89.30;;;;;;5130382;27;20407;-70
2022/01/14 11:54:45;;;;;;;19.77;4.38;;;8.10;89.20;;;;;;5132504;27;20153;-69
2022/01/14 11:57:32;;;;;;;15.02;3.80;;;8.00;89.20;;;;;;5133079;27;20385;-70
2022/01/14 11:59:58;;;;;;;14.93;4.43;;;8.00;89.40;;;;;;5117275;27;20131;-69
2022/01/14 12:02:32;;;;;;;19.98;3.75;;;7.90;89.00;;;;;;5117910;27;20467;-70
2022/01/14 12:05:05;;;;;;;10.05;4.32;;;7.90;89.10;;;;;;5133169;27;20075;-70
2022/01/14 12:07:31;;;;;;;20.35;3.88;;;7.80;89.20;;;;;;5132741;27;20089;-70
2022/01/14 12:10:09;;;;;;;18.85;5.90;;;7.70;89.40;;;;;;5133545;27;20047;-69
2022/01/14 12:12:35;;;;;;;17.50;4.50;;;7.80;89.60;;;;;;5115332;27;20096;-70
2022/01/14 12:15:04;;;;;;;20.92;4.47;;;7.80;89.80;;;;;;5134095;27;20054;-69
2022/01/14 12:17:41;;;;;;;18.80;4.85;;;7.70;89.70;;;;;;5133641;27;20047;-69
2022/01/14 12:20:15;;;;;;;17.65;4.07;;;7.80;90.00;;;;;;5107882;27;20486;-69
2022/01/14 12:23:01;;;;;;;18.88;4.75;;;7.80;90.10;;;;;;5133462;27;20047;-69
2022/01/14 12:25:43;;;;;;;19.67;4.43;;;7.70;90.10;;;;;;5133626;27;20039;-70
2022/01/14 12:28:20;;;;;;;20.60;5.72;;;7.80;90.30;;;;;;5111203;27;20533;-70
2022/01/14 12:31:03;;;;;;;17.55;4.20;;;7.70;90.30;;;;;;5131219;27;20060;-69
2022/01/14 12:33:39;;;;;;;11.80;3.92;;;7.80;90.30;;;;;;5129681;27;20518;-70
2022/01/14 12:36:11;;;;;;;18.80;4.78;;;7.80;90.40;;;;;;5112348;27;20048;-69
2022/01/14 12:38:39;;;;;;;14.27;4.43;;;7.80;90.30;;;;;;5096111;27;20062;-69
2022/01/14 12:41:16;;;;;;;22.50;4.75;;;7.80;90.20;;;;;;5128919;27;20050;-70
2022/01/14 12:43:49;;;;;;;19.98;5.18;;;7.80;90.30;;;;;;5132580;27;20050;-69
2022/01/14 12:46:53;;;;;;;20.80;5.60;;;7.80;90.30;;;;;;5124813;27;20042;-68
2022/01/14 12:49:29;;;;;;;15.80;3.67;;;7.80;90.30;;;;;;5110098;27;20047;-68
2022/01/14 12:52:14;;;;;;;13.57;4.47;;;7.80;90.40;;;;;;5099693;27;20039;-69
2022/01/14 12:54:42;;;;;;;25.27;5.10;;;7.90;90.40;;;;;;5112186;28;20054;-70
2022/01/14 12:57:09;;;;;;;23.13;4.63;;;7.80;90.20;;;;;;5104037;28;20040;-70
2022/01/14 12:59:43;;;;;;;17.60;4.65;;;7.90;90.60;;;;;;5113912;27;20392;-69
2022/01/14 13:02:18;;;;;;;22.83;5.82;;;7.90;90.50;;;;;;5113607;27;20035;-69
2022/01/14 13:04:44;;;;;;;19.23;5.45;;;7.90;90.40;;;;;;5132494;27;20419;-69
2022/01/14 13:07:11;;;;;;;20.48;4.63;;;7.90;90.40;;;;;;5097783;27;20122;-69
2022/01/14 13:09:40;;;;;;;23.17;4.70;;;7.90;90.50;;;;;;5120065;27;20057;-72
2022/01/14 13:12:08;;;;;;;20.58;4.70;;;7.90;90.50;;;;;;5114543;27;20975;-69
2022/01/14 13:14:47;;;;;;;31.60;6.47;;;7.90;90.60;;;;;;5123849;27;20063;-70
2022/01/14 13:17:25;;;;;;;24.67;4.93;;;7.90;90.50;;;;;;5118383;27;20122;-69
2022/01/14 13:19:55;;;;;;;22.35;5.00;;;7.90;90.60;;;;;;5126549;27;20073;-70